Time;durP1;ratioP1;P1;durP2;ratioP2;P2;SDS_P1;SDS_P2;PMS_P1;PMS_P2;Temp;Humidity;BMP_temperature;BMP_pressure;BME280_temperature;BME280_humidity;BME280_pressure;Samples;Min_cycle;Max_cycle;Signal;HPM_P1;HPM_P2
2023/05/30 00:02:05;;;;;;;4.60;3.08;;;17.00;99.90;;;;;;5051521;28;20079;-75
2023/05/30 00:04:32;;;;;;;6.22;3.00;;;16.90;99.90;;;;;;5051908;28;20052;-75
2023/05/30 00:06:59;;;;;;;4.70;3.00;;;16.90;99.90;;;;;;5049154;28;20095;-75
2023/05/30 00:09:26;;;;;;;6.57;3.00;;;16.90;99.90;;;;;;5053948;28;20091;-74
2023/05/30 00:11:54;;;;;;;6.90;3.38;;;16.80;99.90;;;;;;5052513;28;20057;-75
2023/05/30 00:14:23;;;;;;;5.57;3.47;;;16.80;99.90;;;;;;5059611;28;20053;-75
2023/05/30 00:16:49;;;;;;;5.05;2.88;;;16.70;99.90;;;;;;5051220;28;20059;-73
2023/05/30 00:19:16;;;;;;;9.60;2.97;;;16.70;99.90;;;;;;5051142;28;20128;-75
2023/05/30 00:21:45;;;;;;;5.57;3.45;;;16.60;99.90;;;;;;5050768;28;20317;-75
2023/05/30 00:24:11;;;;;;;3.95;3.20;;;16.50;99.90;;;;;;5053196;28;20060;-74
2023/05/30 00:26:38;;;;;;;5.18;3.40;;;16.50;99.90;;;;;;5053538;28;20045;-75
2023/05/30 00:29:05;;;;;;;5.25;3.20;;;16.50;99.90;;;;;;5048783;28;20124;-75
2023/05/30 00:31:32;;;;;;;5.63;3.30;;;16.40;99.90;;;;;;5051632;28;20048;-74
2023/05/30 00:33:58;;;;;;;5.90;3.72;;;16.40;99.90;;;;;;5065729;28;20102;-74
2023/05/30 00:36:25;;;;;;;4.15;3.22;;;16.40;99.90;;;;;;5049467;28;20045;-75
2023/05/30 00:38:52;;;;;;;5.35;3.15;;;16.40;99.90;;;;;;5052826;28;20453;-75
2023/05/30 00:41:19;;;;;;;5.35;3.15;;;16.30;99.90;;;;;;5052897;28;20041;-75
2023/05/30 00:43:45;;;;;;;5.28;3.08;;;16.30;99.90;;;;;;5047301;28;20132;-75
2023/05/30 00:46:14;;;;;;;7.10;3.10;;;16.20;99.90;;;;;;5049826;28;20480;-75
2023/05/30 00:48:41;;;;;;;4.63;3.25;;;16.20;99.90;;;;;;5052543;28;20475;-74
2023/05/30 00:51:11;;;;;;;5.80;3.17;;;16.20;99.90;;;;;;5049782;28;20421;-75
2023/05/30 00:53:41;;;;;;;5.30;3.50;;;16.10;99.90;;;;;;5053355;28;20540;-75
2023/05/30 00:56:09;;;;;;;4.47;3.47;;;16.10;99.90;;;;;;5050806;28;20088;-75
2023/05/30 00:58:37;;;;;;;7.55;3.47;;;16.00;99.90;;;;;;5046363;28;20049;-74
2023/05/30 01:01:06;;;;;;;7.43;3.85;;;16.00;99.90;;;;;;5049388;28;20080;-75
2023/05/30 01:03:33;;;;;;;5.63;3.38;;;15.90;99.90;;;;;;5050579;28;20045;-74
2023/05/30 01:06:01;;;;;;;5.32;3.03;;;15.90;99.90;;;;;;5049370;28;20057;-74
2023/05/30 01:08:28;;;;;;;5.75;2.80;;;15.80;99.90;;;;;;5050702;28;20128;-75
2023/05/30 01:11:30;;;;;;;4.55;2.80;;;15.80;99.90;;;;;;5052825;28;20052;-74
2023/05/30 01:14:16;;;;;;;10.18;3.92;;;15.80;99.90;;;;;;5033137;28;20131;-75
2023/05/30 01:17:01;;;;;;;5.90;3.28;;;15.80;99.90;;;;;;5037724;28;20054;-75
2023/05/30 01:19:47;;;;;;;5.72;3.08;;;15.80;99.90;;;;;;5047496;28;20050;-75
2023/05/30 01:23:01;;;;;;;7.80;3.30;;;15.80;99.90;;;;;;5050960;28;20389;-75
2023/05/30 01:26:06;;;;;;;5.18;3.33;;;15.70;99.90;;;;;;5028865;28;20077;-75
2023/05/30 01:28:36;;;;;;;4.00;2.97;;;15.70;99.90;;;;;;5012028;28;20411;-75
2023/05/30 01:31:04;;;;;;;4.28;2.95;;;15.70;99.90;;;;;;5044055;28;20053;-75
2023/05/30 01:33:32;;;;;;;5.13;3.53;;;15.70;99.90;;;;;;5052242;28;20053;-75
2023/05/30 01:35:59;;;;;;;3.78;3.10;;;15.70;99.90;;;;;;5049358;28;20174;-75
2023/05/30 01:38:26;;;;;;;4.57;3.03;;;15.60;99.90;;;;;;5051264;28;20045;-75
2023/05/30 01:40:56;;;;;;;4.70;3.35;;;15.60;99.90;;;;;;5050949;28;20064;-74
2023/05/30 01:43:39;;;;;;;5.57;3.20;;;15.50;99.90;;;;;;5042673;28;20037;-74
2023/05/30 01:46:20;;;;;;;4.20;3.03;;;15.50;99.90;;;;;;5047981;28;20095;-74
2023/05/30 01:48:52;;;;;;;5.40;3.40;;;15.50;99.90;;;;;;5050213;28;20073;-75
2023/05/30 01:51:26;;;;;;;6.22;3.50;;;15.50;99.90;;;;;;5049145;28;20562;-74
2023/05/30 01:53:59;;;;;;;4.47;3.00;;;15.40;99.90;;;;;;5055183;28;20055;-75
2023/05/30 01:56:28;;;;;;;5.80;3.17;;;15.40;99.90;;;;;;5044431;28;20091;-75
2023/05/30 01:58:55;;;;;;;5.22;3.47;;;15.40;99.90;;;;;;5044816;28;20458;-75
2023/05/30 02:01:26;;;;;;;4.53;2.90;;;15.40;99.90;;;;;;5048990;28;20132;-74
2023/05/30 02:03:53;;;;;;;6.85;3.33;;;15.30;99.90;;;;;;5049459;28;20049;-74
2023/05/30 02:06:22;;;;;;;5.05;3.00;;;15.30;99.90;;;;;;5048972;28;20044;-74
2023/05/30 02:08:49;;;;;;;5.57;3.53;;;15.20;99.90;;;;;;5049800;28;20114;-75
2023/05/30 02:11:17;;;;;;;5.00;3.20;;;15.20;99.90;;;;;;5050241;28;20455;-74
2023/05/30 02:13:45;;;;;;;4.65;2.90;;;15.10;99.90;;;;;;5044712;28;20049;-75
2023/05/30 02:16:13;;;;;;;4.60;3.05;;;15.10;99.90;;;;;;5047557;28;20049;-74
2023/05/30 02:18:41;;;;;;;9.93;3.55;;;15.00;99.90;;;;;;5050797;28;20469;-75
2023/05/30 02:21:08;;;;;;;4.65;3.30;;;15.00;99.90;;;;;;5050601;28;20136;-75
2023/05/30 02:23:35;;;;;;;4.22;3.17;;;15.00;99.90;;;;;;5051156;28;20493;-75
2023/05/30 02:26:02;;;;;;;5.65;3.08;;;15.00;99.90;;;;;;5049698;28;20077;-75
2023/05/30 02:28:29;;;;;;;6.05;3.13;;;14.90;99.90;;;;;;5045343;28;20045;-75
2023/05/30 02:30:56;;;;;;;4.93;3.08;;;15.00;99.90;;;;;;5049293;28;20107;-75
2023/05/30 02:33:23;;;;;;;5.25;3.45;;;14.90;99.90;;;;;;5050787;28;20052;-75
2023/05/30 02:35:50;;;;;;;4.10;2.95;;;14.90;99.90;;;;;;5049034;28;20489;-75
2023/05/30 02:38:16;;;;;;;6.28;2.75;;;14.80;99.90;;;;;;5050459;28;20084;-75
2023/05/30 02:40:45;;;;;;;4.40;2.85;;;14.80;99.90;;;;;;5049614;28;20060;-75
2023/05/30 02:43:12;;;;;;;5.40;3.25;;;14.80;99.90;;;;;;5042947;28;20088;-75
2023/05/30 02:45:46;;;;;;;6.60;3.20;;;14.80;99.90;;;;;;5046197;28;20048;-75
2023/05/30 02:48:13;;;;;;;6.43;3.05;;;14.70;99.90;;;;;;5050444;28;20121;-75
2023/05/30 02:50:40;;;;;;;5.00;3.08;;;14.70;99.90;;;;;;5046671;28;20513;-75
2023/05/30 02:53:07;;;;;;;6.15;3.20;;;14.70;99.90;;;;;;5051010;28;20284;-73
2023/05/30 02:55:33;;;;;;;6.13;3.80;;;14.70;99.90;;;;;;5050704;28;20420;-74
2023/05/30 02:58:00;;;;;;;5.88;2.85;;;14.70;99.90;;;;;;5043597;28;20080;-75
2023/05/30 03:00:27;;;;;;;5.15;3.08;;;14.70;99.90;;;;;;5051157;28;20120;-74
2023/05/30 03:02:55;;;;;;;8.70;3.58;;;14.60;99.90;;;;;;5053541;28;20053;-75
2023/05/30 03:05:22;;;;;;;9.38;4.07;;;14.50;99.90;;;;;;5053254;28;20069;-75
2023/05/30 03:07:51;;;;;;;5.72;3.42;;;14.50;99.90;;;;;;5053220;28;20132;-74
2023/05/30 03:10:18;;;;;;;4.00;2.95;;;14.50;99.90;;;;;;5055050;28;20045;-74
2023/05/30 03:12:45;;;;;;;5.35;3.33;;;14.50;99.90;;;;;;5048359;28;20175;-75
2023/05/30 03:15:11;;;;;;;7.13;3.20;;;14.50;99.90;;;;;;5049513;28;20057;-75
2023/05/30 03:17:41;;;;;;;5.88;3.33;;;14.50;99.90;;;;;;5053953;28;20481;-75
2023/05/30 03:20:08;;;;;;;7.87;3.60;;;14.50;99.90;;;;;;5053034;28;20103;-75
2023/05/30 03:22:35;;;;;;;6.63;3.97;;;14.50;99.90;;;;;;5053185;28;20041;-75
2023/05/30 03:25:02;;;;;;;5.10;3.25;;;14.40;99.90;;;;;;5054527;28;20670;-75
2023/05/30 03:27:28;;;;;;;7.15;3.85;;;14.40;99.90;;;;;;5047548;28;20120;-75
2023/05/30 03:29:56;;;;;;;6.95;3.67;;;14.40;99.90;;;;;;5050194;28;20047;-75
2023/05/30 03:32:23;;;;;;;6.10;3.40;;;14.40;99.90;;;;;;5053949;28;20049;-74
2023/05/30 03:34:50;;;;;;;6.13;3.55;;;14.40;99.90;;;;;;5052201;28;20132;-74
2023/05/30 03:37:16;;;;;;;9.10;3.50;;;14.40;99.90;;;;;;5053241;28;20076;-75
2023/05/30 03:39:43;;;;;;;4.57;2.97;;;14.30;99.90;;;;;;5054335;28;20076;-75
2023/05/30 03:42:10;;;;;;;6.85;3.42;;;14.30;99.90;;;;;;5049781;28;20128;-75
2023/05/30 03:44:37;;;;;;;6.03;3.55;;;14.30;99.90;;;;;;5049573;28;20103;-75
2023/05/30 03:47:04;;;;;;;5.93;3.33;;;14.20;99.90;;;;;;5053264;28;20041;-75
2023/05/30 03:49:30;;;;;;;10.02;3.83;;;14.20;99.90;;;;;;5053204;28;20069;-75
2023/05/30 03:51:57;;;;;;;8.65;3.30;;;14.20;99.90;;;;;;5050386;28;20144;-75
2023/05/30 03:54:24;;;;;;;9.25;3.60;;;14.20;99.90;;;;;;5052894;28;20143;-75
2023/05/30 03:56:51;;;;;;;6.30;3.55;;;14.20;99.90;;;;;;5049872;28;20057;-75
2023/05/30 03:59:17;;;;;;;7.63;4.28;;;14.20;99.90;;;;;;5047001;28;20049;-75
2023/05/30 04:01:44;;;;;;;6.32;3.92;;;14.20;99.90;;;;;;5049758;28;20135;-75
2023/05/30 04:04:11;;;;;;;9.20;3.65;;;14.20;99.90;;;;;;5051593;28;20049;-75
2023/05/30 04:06:39;;;;;;;6.80;3.85;;;14.20;99.90;;;;;;5050359;28;20137;-75
2023/05/30 04:09:06;;;;;;;5.75;3.35;;;14.20;99.90;;;;;;5053390;28;20457;-75
2023/05/30 04:11:33;;;;;;;6.25;3.60;;;14.20;99.90;;;;;;5050124;28;20195;-74
2023/05/30 04:14:00;;;;;;;6.70;3.53;;;14.20;99.90;;;;;;5049549;28;20067;-75
2023/05/30 04:16:26;;;;;;;7.70;3.75;;;14.20;99.90;;;;;;5052216;28;20052;-75
2023/05/30 04:18:53;;;;;;;7.30;3.60;;;14.20;99.90;;;;;;5052854;28;20056;-74
2023/05/30 04:21:20;;;;;;;8.27;4.20;;;14.20;99.90;;;;;;5052009;28;20071;-75
2023/05/30 04:23:47;;;;;;;4.03;3.15;;;14.30;99.90;;;;;;5052697;28;20098;-74
2023/05/30 04:26:14;;;;;;;9.48;3.85;;;14.30;99.90;;;;;;5052088;28;20055;-74
2023/05/30 04:28:43;;;;;;;5.93;4.10;;;14.30;99.90;;;;;;5046856;28;20155;-75
2023/05/30 04:31:10;;;;;;;7.20;3.75;;;14.40;99.90;;;;;;5050117;28;20057;-75
2023/05/30 04:33:53;;;;;;;10.18;4.05;;;14.40;99.90;;;;;;5053249;28;20053;-74
2023/05/30 04:36:20;;;;;;;6.53;4.43;;;14.40;99.90;;;;;;5052042;28;20045;-75
2023/05/30 04:38:49;;;;;;;6.18;3.63;;;14.40;99.90;;;;;;5052582;28;20145;-75
2023/05/30 04:41:20;;;;;;;5.82;3.72;;;14.50;99.90;;;;;;5051753;28;20095;-75
2023/05/30 04:43:57;;;;;;;6.82;4.85;;;14.50;99.90;;;;;;5047946;28;20053;-75
2023/05/30 04:46:27;;;;;;;6.30;3.75;;;14.60;99.90;;;;;;5052029;28;20057;-75
2023/05/30 04:48:58;;;;;;;6.15;3.15;;;14.60;99.90;;;;;;5047887;28;20045;-74
2023/05/30 04:51:26;;;;;;;6.38;3.75;;;14.70;99.90;;;;;;5052029;28;20041;-75
2023/05/30 04:53:53;;;;;;;5.38;3.42;;;14.70;99.90;;;;;;5053039;28;20102;-74
2023/05/30 04:56:20;;;;;;;5.15;3.80;;;14.80;99.90;;;;;;5050858;28;20048;-74
2023/05/30 04:58:48;;;;;;;9.63;4.00;;;14.90;99.90;;;;;;5047596;28;20534;-75
2023/05/30 05:01:15;;;;;;;7.05;3.60;;;15.00;99.90;;;;;;5051785;28;20068;-75
2023/05/30 05:03:43;;;;;;;6.82;3.33;;;15.10;99.90;;;;;;5051222;28;20049;-75
2023/05/30 05:06:11;;;;;;;6.75;3.90;;;15.20;99.90;;;;;;5051395;28;20428;-74
2023/05/30 05:08:38;;;;;;;6.00;3.72;;;15.30;99.90;;;;;;5052059;28;20076;-74
2023/05/30 05:11:06;;;;;;;8.68;3.88;;;15.40;99.90;;;;;;5052468;28;20076;-74
2023/05/30 05:13:33;;;;;;;4.85;3.58;;;15.50;99.90;;;;;;5045531;28;20160;-75
2023/05/30 05:16:00;;;;;;;7.05;3.97;;;15.60;99.90;;;;;;5051345;28;20080;-75
2023/05/30 05:18:28;;;;;;;6.57;3.88;;;15.70;99.90;;;;;;5048331;28;20057;-75
2023/05/30 05:20:55;;;;;;;7.35;4.63;;;15.80;99.90;;;;;;5050263;28;20072;-74
2023/05/30 05:23:23;;;;;;;6.07;3.65;;;15.90;99.90;;;;;;5049833;28;20505;-75
2023/05/30 05:25:50;;;;;;;8.70;4.07;;;16.00;99.90;;;;;;5050835;28;20523;-75
2023/05/30 05:28:17;;;;;;;7.13;4.10;;;16.10;99.90;;;;;;5045234;28;20048;-74
2023/05/30 05:30:44;;;;;;;7.00;4.22;;;16.30;99.90;;;;;;5049936;28;20204;-74
2023/05/30 05:33:13;;;;;;;8.68;4.43;;;16.30;99.90;;;;;;5051708;28;20045;-75
2023/05/30 05:35:40;;;;;;;7.65;4.30;;;16.40;99.90;;;;;;5049386;28;20500;-75
2023/05/30 05:38:07;;;;;;;9.80;4.53;;;16.40;99.90;;;;;;5051176;28;20136;-74
2023/05/30 05:40:34;;;;;;;10.73;5.20;;;16.50;99.90;;;;;;5051336;28;20088;-74
2023/05/30 05:43:01;;;;;;;9.85;4.10;;;16.50;99.90;;;;;;5046613;28;20102;-75
2023/05/30 05:45:27;;;;;;;12.07;4.88;;;16.50;99.90;;;;;;5049954;28;20486;-75
2023/05/30 05:47:54;;;;;;;9.57;4.72;;;16.50;99.90;;;;;;5050999;28;20547;-75
2023/05/30 05:50:21;;;;;;;12.77;5.05;;;16.40;99.90;;;;;;5049541;28;20447;-75
2023/05/30 05:52:48;;;;;;;6.95;4.80;;;16.40;99.90;;;;;;5052010;28;20473;-75
2023/05/30 05:55:15;;;;;;;11.15;5.25;;;16.40;99.90;;;;;;5048895;28;20132;-74
2023/05/30 05:57:42;;;;;;;14.43;5.40;;;16.40;99.90;;;;;;5045848;28;20136;-75
2023/05/30 06:00:09;;;;;;;8.93;4.07;;;16.40;99.90;;;;;;5049490;28;20049;-74
2023/05/30 06:02:36;;;;;;;10.35;4.55;;;16.40;99.90;;;;;;5043377;28;20045;-75
2023/05/30 06:05:04;;;;;;;10.30;5.55;;;16.40;99.90;;;;;;5049460;28;20045;-75
2023/05/30 06:07:30;;;;;;;9.75;5.20;;;16.50;99.90;;;;;;5051013;28;20084;-75
2023/05/30 06:09:57;;;;;;;12.10;4.72;;;16.40;99.90;;;;;;5051596;28;20107;-74
2023/05/30 06:12:24;;;;;;;11.35;5.13;;;16.40;99.90;;;;;;5046784;28;20467;-75
2023/05/30 06:14:51;;;;;;;8.27;4.65;;;16.50;99.90;;;;;;5048831;28;20136;-74
2023/05/30 06:17:17;;;;;;;8.80;4.50;;;16.50;99.90;;;;;;5048327;28;20091;-75
2023/05/30 06:19:44;;;;;;;10.98;5.63;;;16.50;99.90;;;;;;5049354;28;20060;-74
2023/05/30 06:22:11;;;;;;;7.85;4.40;;;16.50;99.90;;;;;;5051366;28;20106;-75
2023/05/30 06:24:37;;;;;;;9.07;4.78;;;16.50;99.90;;;;;;5051440;28;20044;-75
2023/05/30 06:27:06;;;;;;;14.90;5.75;;;16.60;99.90;;;;;;5046687;28;20072;-75
2023/05/30 06:29:34;;;;;;;8.48;4.55;;;16.50;99.90;;;;;;5047685;28;20331;-75
2023/05/30 06:32:01;;;;;;;11.40;5.35;;;16.50;99.90;;;;;;5051012;28;20073;-75
2023/05/30 06:34:41;;;;;;;7.47;4.30;;;16.60;99.90;;;;;;5048289;28;20049;-75
2023/05/30 06:37:09;;;;;;;13.77;4.85;;;16.60;99.90;;;;;;5048020;28;20083;-75
2023/05/30 06:39:35;;;;;;;8.88;4.82;;;16.70;99.90;;;;;;5050979;28;20543;-75
2023/05/30 06:42:09;;;;;;;12.30;4.82;;;16.70;99.90;;;;;;5048238;28;20053;-75
2023/05/30 06:44:37;;;;;;;12.00;4.53;;;16.80;99.90;;;;;;5047361;28;20135;-75
2023/05/30 06:47:04;;;;;;;10.88;5.70;;;16.90;99.90;;;;;;5050308;28;20083;-75
2023/05/30 06:49:31;;;;;;;8.13;4.50;;;17.00;99.90;;;;;;5049334;28;20080;-75
2023/05/30 06:51:58;;;;;;;9.95;5.28;;;17.00;99.90;;;;;;5050829;28;20053;-75
2023/05/30 06:54:25;;;;;;;11.55;4.82;;;17.00;99.90;;;;;;5049237;28;20085;-75
2023/05/30 06:56:52;;;;;;;8.60;4.50;;;17.10;99.90;;;;;;5047377;28;20053;-74
2023/05/30 06:59:19;;;;;;;9.13;4.63;;;17.20;99.90;;;;;;5045849;28;20550;-75
2023/05/30 07:01:46;;;;;;;8.32;4.28;;;17.30;99.90;;;;;;5041854;28;20045;-75
2023/05/30 07:04:13;;;;;;;8.07;4.15;;;17.30;99.90;;;;;;5046012;28;20148;-75
2023/05/30 07:06:40;;;;;;;9.63;4.60;;;17.40;99.90;;;;;;5044469;28;20057;-75
2023/05/30 07:09:07;;;;;;;9.93;4.53;;;17.40;99.90;;;;;;5044700;28;20071;-74
2023/05/30 07:11:34;;;;;;;7.38;4.53;;;17.40;99.90;;;;;;5050426;28;20110;-75
2023/05/30 07:14:00;;;;;;;8.10;4.43;;;17.50;99.90;;;;;;5048193;28;20080;-76
2023/05/30 07:16:27;;;;;;;8.70;4.07;;;17.50;99.90;;;;;;5045905;28;20103;-74
2023/05/30 07:18:54;;;;;;;7.95;4.40;;;17.50;99.90;;;;;;5049600;28;20052;-75
2023/05/30 07:21:37;;;;;;;11.60;4.80;;;17.50;99.90;;;;;;5050274;28;20424;-75
2023/05/30 07:24:04;;;;;;;16.38;4.65;;;17.60;99.90;;;;;;5048936;28;20071;-75
2023/05/30 07:26:31;;;;;;;8.77;4.50;;;17.60;99.90;;;;;;5046807;28;20041;-74
2023/05/30 07:28:57;;;;;;;10.38;4.95;;;17.70;99.90;;;;;;5046084;28;20135;-75
2023/05/30 07:31:24;;;;;;;9.32;4.00;;;17.70;99.90;;;;;;5046719;28;20576;-75
2023/05/30 07:33:51;;;;;;;8.63;3.92;;;17.80;99.90;;;;;;5049463;28;20041;-74
2023/05/30 07:36:18;;;;;;;13.07;4.93;;;17.80;99.90;;;;;;5046143;28;20416;-74
2023/05/30 07:38:45;;;;;;;8.85;3.90;;;17.90;99.90;;;;;;5048655;28;20049;-75
2023/05/30 07:41:12;;;;;;;15.18;4.70;;;17.90;99.90;;;;;;5048800;28;20045;-74
2023/05/30 07:43:38;;;;;;;11.82;4.93;;;18.00;99.90;;;;;;5049984;28;20049;-75
2023/05/30 07:46:05;;;;;;;13.98;4.20;;;18.00;99.90;;;;;;5051576;28;20037;-74
2023/05/30 07:48:32;;;;;;;13.80;4.05;;;18.10;99.90;;;;;;5052282;28;20062;-75
2023/05/30 07:50:59;;;;;;;9.93;4.57;;;18.20;99.90;;;;;;5054310;28;20081;-74
2023/05/30 07:53:26;;;;;;;12.25;3.78;;;18.20;99.90;;;;;;5048602;28;20079;-75
2023/05/30 07:55:52;;;;;;;8.30;4.32;;;18.20;99.90;;;;;;5052045;28;20095;-74
2023/05/30 07:58:19;;;;;;;5.07;3.60;;;18.30;99.90;;;;;;5050730;28;20144;-75
2023/05/30 08:00:46;;;;;;;8.75;4.07;;;18.30;99.90;;;;;;5055111;28;20132;-75
2023/05/30 08:03:13;;;;;;;8.45;4.20;;;18.30;99.90;;;;;;5051915;28;20045;-74
2023/05/30 08:05:40;;;;;;;7.15;4.05;;;18.40;99.90;;;;;;5050831;28;20062;-75
2023/05/30 08:08:07;;;;;;;6.47;3.88;;;18.50;99.90;;;;;;5051368;28;20090;-75
2023/05/30 08:10:34;;;;;;;9.32;4.47;;;18.50;99.90;;;;;;5051026;28;20148;-74
2023/05/30 08:13:02;;;;;;;15.45;3.92;;;18.60;99.90;;;;;;5051348;28;20543;-75
2023/05/30 08:15:28;;;;;;;6.53;3.50;;;18.60;99.90;;;;;;5052155;28;20057;-75
2023/05/30 08:17:56;;;;;;;7.85;3.72;;;18.70;99.90;;;;;;5049090;28;20040;-75
2023/05/30 08:20:24;;;;;;;7.25;3.90;;;18.70;99.90;;;;;;5053113;28;20041;-75
2023/05/30 08:22:51;;;;;;;7.80;3.58;;;18.60;99.90;;;;;;5048339;28;20508;-75
2023/05/30 08:25:32;;;;;;;13.20;4.72;;;18.70;99.90;;;;;;5045815;28;20131;-74
2023/05/30 08:27:59;;;;;;;;;;;18.70;99.90;;;;;;5050038;28;20425;-75
2023/05/30 08:30:25;;;;;;;9.68;3.95;;;18.70;99.90;;;;;;5049399;28;20019;-75
2023/05/30 08:32:53;;;;;;;10.32;4.80;;;18.60;99.90;;;;;;5046711;28;20582;-76
2023/05/30 08:35:20;;;;;;;6.68;3.95;;;18.70;99.90;;;;;;5051633;28;20135;-75
2023/05/30 08:37:47;;;;;;;12.05;3.85;;;18.80;99.90;;;;;;5046512;28;20599;-75
2023/05/30 08:40:15;;;;;;;8.07;4.50;;;18.80;99.90;;;;;;5050495;28;20055;-75
2023/05/30 08:42:42;;;;;;;9.05;3.60;;;18.80;99.90;;;;;;5050758;28;20041;-75
2023/05/30 08:45:10;;;;;;;11.10;4.13;;;18.80;99.90;;;;;;5053290;28;20468;-74
2023/05/30 08:47:37;;;;;;;9.50;3.75;;;18.80;99.90;;;;;;5050486;28;20058;-75
2023/05/30 08:50:07;;;;;;;13.55;4.10;;;18.90;99.90;;;;;;5053001;28;20068;-76
2023/05/30 08:52:37;;;;;;;21.23;3.97;;;19.00;99.90;;;;;;5051317;28;20044;-75
2023/05/30 08:55:11;;;;;;;8.20;3.90;;;19.00;99.90;;;;;;5052545;28;20091;-75
2023/05/30 08:57:48;;;;;;;11.20;3.63;;;19.10;99.90;;;;;;5049076;28;20048;-75
2023/05/30 09:00:15;;;;;;;9.38;4.13;;;19.10;99.90;;;;;;5051483;28;20428;-75
2023/05/30 09:02:43;;;;;;;8.40;3.80;;;19.10;99.90;;;;;;5050363;28;20497;-75
2023/05/30 09:05:12;;;;;;;8.57;3.65;;;19.20;99.90;;;;;;5052649;28;20574;-75
2023/05/30 09:07:40;;;;;;;7.28;3.67;;;19.20;99.90;;;;;;5042734;28;20045;-74
2023/05/30 09:10:07;;;;;;;10.95;4.15;;;19.30;99.90;;;;;;5050460;28;20531;-77
2023/05/30 09:12:35;;;;;;;7.80;3.80;;;19.30;99.90;;;;;;5050390;28;20088;-75
2023/05/30 09:15:02;;;;;;;8.05;3.10;;;19.30;99.90;;;;;;5052135;28;20045;-75
2023/05/30 09:17:29;;;;;;;5.78;4.13;;;19.30;99.90;;;;;;5048671;28;20084;-75
2023/05/30 09:19:56;;;;;;;8.27;3.88;;;19.40;99.90;;;;;;5049010;28;20049;-75
2023/05/30 09:22:25;;;;;;;13.95;3.83;;;19.50;99.90;;;;;;5048765;28;20114;-75
2023/05/30 09:25:03;;;;;;;8.27;3.83;;;19.50;99.90;;;;;;5051067;28;20048;-74
2023/05/30 09:27:35;;;;;;;8.90;4.20;;;19.50;99.90;;;;;;5050123;28;20083;-75
2023/05/30 09:30:09;;;;;;;7.70;3.72;;;19.50;99.90;;;;;;5050902;28;20037;-75
2023/05/30 09:32:39;;;;;;;10.40;3.88;;;19.50;99.90;;;;;;5044855;28;20412;-75
2023/05/30 09:35:09;;;;;;;10.50;3.90;;;19.60;99.90;;;;;;5046210;28;20060;-75
2023/05/30 09:37:39;;;;;;;;;;;19.60;99.90;;;;;;5045652;28;20053;-75
2023/05/30 09:40:11;;;;;;;7.87;3.83;;;19.60;99.90;;;;;;5050326;28;19921;-76
2023/05/30 09:42:42;;;;;;;6.93;3.58;;;19.60;99.90;;;;;;5049024;28;20460;-75
2023/05/30 09:45:14;;;;;;;8.30;3.85;;;19.60;99.90;;;;;;5049433;28;20037;-75
2023/05/30 09:47:45;;;;;;;10.70;4.43;;;19.70;99.90;;;;;;5046356;28;20103;-75
2023/05/30 09:50:14;;;;;;;10.25;3.97;;;19.80;99.90;;;;;;5047068;28;20047;-76
2023/05/30 09:52:42;;;;;;;11.00;4.30;;;19.90;99.90;;;;;;5044352;28;20455;-75
2023/05/30 09:55:09;;;;;;;7.55;3.45;;;19.90;99.90;;;;;;5038328;28;20103;-76
2023/05/30 09:57:38;;;;;;;11.90;4.78;;;20.00;99.90;;;;;;5047605;28;20052;-75
2023/05/30 10:00:11;;;;;;;;;;;20.00;99.90;;;;;;5050535;28;20044;-75
2023/05/30 10:02:40;;;;;;;9.27;3.65;;;20.00;99.90;;;;;;5048375;28;19983;-74
2023/05/30 10:05:26;;;;;;;6.60;3.55;;;20.10;99.90;;;;;;5050094;28;20067;-76
2023/05/30 10:07:57;;;;;;;8.60;4.05;;;20.10;99.90;;;;;;5049040;28;20076;-75
2023/05/30 10:10:24;;;;;;;6.43;3.65;;;20.20;99.90;;;;;;5045553;28;20095;-75
2023/05/30 10:12:55;;;;;;;9.05;4.20;;;20.20;99.90;;;;;;5046431;28;20045;-76
2023/05/30 10:15:25;;;;;;;13.38;3.90;;;20.20;99.90;;;;;;5048811;28;20051;-75
2023/05/30 10:18:03;;;;;;;7.57;3.58;;;20.20;99.90;;;;;;5047640;28;20124;-75
2023/05/30 10:20:31;;;;;;;8.68;3.83;;;20.20;99.90;;;;;;5043949;28;20053;-75
2023/05/30 10:22:59;;;;;;;9.63;3.92;;;20.20;99.90;;;;;;5049056;28;20045;-75
2023/05/30 10:25:30;;;;;;;6.22;3.72;;;20.30;99.90;;;;;;5047383;28;20076;-75
2023/05/30 10:28:00;;;;;;;6.28;4.10;;;20.30;99.90;;;;;;5048402;28;20045;-75
2023/05/30 10:30:29;;;;;;;12.00;3.80;;;20.40;99.90;;;;;;5049382;28;20045;-74
2023/05/30 10:33:06;;;;;;;7.72;3.80;;;20.50;99.90;;;;;;5049570;28;20045;-76
2023/05/30 10:35:34;;;;;;;8.27;4.28;;;20.50;99.90;;;;;;5040142;28;20045;-75
2023/05/30 10:38:04;;;;;;;8.35;4.05;;;20.50;99.90;;;;;;5048730;28;20095;-75
2023/05/30 10:40:57;;;;;;;12.37;4.20;;;20.50;99.90;;;;;;5046918;28;20444;-75
2023/05/30 10:43:38;;;;;;;9.88;4.10;;;20.60;99.90;;;;;;5048332;28;20106;-75
2023/05/30 10:46:08;;;;;;;10.80;3.90;;;20.50;99.90;;;;;;5047928;28;20628;-75
2023/05/30 10:49:06;;;;;;;6.15;3.10;;;20.60;99.90;;;;;;5045535;28;20540;-75
2023/05/30 10:52:05;;;;;;;9.55;3.85;;;20.60;99.90;;;;;;5047404;28;20459;-75
2023/05/30 10:54:34;;;;;;;11.07;3.97;;;20.70;99.90;;;;;;5046726;28;20045;-74
2023/05/30 10:57:23;;;;;;;11.02;3.85;;;20.80;99.90;;;;;;5044913;28;20048;-75
2023/05/30 10:59:52;;;;;;;11.18;4.28;;;20.80;99.90;;;;;;5048454;28;20049;-75
2023/05/30 11:02:34;;;;;;;8.50;3.40;;;20.80;99.90;;;;;;5048976;28;20428;-75
2023/05/30 11:05:11;;;;;;;10.00;4.00;;;20.90;99.90;;;;;;5048502;28;20519;-75
2023/05/30 11:07:40;;;;;;;13.10;4.05;;;20.90;99.90;;;;;;5047217;28;20057;-75
2023/05/30 11:10:10;;;;;;;10.93;4.32;;;21.00;99.90;;;;;;5048286;28;20041;-75
2023/05/30 11:12:47;;;;;;;;;;;21.10;99.90;;;;;;5048564;28;20165;-75
2023/05/30 11:15:16;;;;;;;5.50;3.58;;;21.10;99.90;;;;;;5048016;28;19921;-76
2023/05/30 11:17:43;;;;;;;7.95;3.50;;;21.10;99.90;;;;;;5044807;28;20041;-75
2023/05/30 11:20:16;;;;;;;10.43;3.72;;;21.10;99.90;;;;;;5050125;28;20040;-75
2023/05/30 11:23:02;;;;;;;15.90;4.22;;;21.20;99.90;;;;;;5049856;28;20088;-75
2023/05/30 11:25:32;;;;;;;9.23;3.92;;;21.30;99.90;;;;;;5052948;28;20048;-75
2023/05/30 11:28:13;;;;;;;7.57;3.55;;;21.30;99.90;;;;;;5052095;28;20040;-75
2023/05/30 11:30:46;;;;;;;9.85;3.92;;;21.40;99.90;;;;;;5052568;28;20037;-75
2023/05/30 11:33:16;;;;;;;10.23;3.88;;;21.50;99.90;;;;;;5052738;28;20061;-76
2023/05/30 11:35:48;;;;;;;7.47;3.88;;;21.50;99.90;;;;;;5053963;28;20041;-76
2023/05/30 11:38:19;;;;;;;7.45;4.07;;;21.50;99.90;;;;;;5051924;28;20152;-75
2023/05/30 11:40:47;;;;;;;8.43;3.58;;;21.50;99.90;;;;;;5052886;28;20049;-75
2023/05/30 11:43:17;;;;;;;8.20;3.88;;;21.60;99.90;;;;;;5050937;28;20083;-76
2023/05/30 11:45:49;;;;;;;5.85;3.78;;;21.60;99.90;;;;;;5052790;28;20114;-76
2023/05/30 11:48:17;;;;;;;7.82;3.38;;;21.70;99.90;;;;;;5053638;28;20073;-76
2023/05/30 11:50:45;;;;;;;13.45;4.10;;;21.70;99.90;;;;;;5051871;28;20048;-75
2023/05/30 11:53:17;;;;;;;8.95;3.33;;;21.80;99.90;;;;;;5050888;28;20405;-75
2023/05/30 11:55:48;;;;;;;9.15;3.92;;;21.80;99.90;;;;;;5052205;28;20075;-75
2023/05/30 11:58:15;;;;;;;8.45;4.30;;;21.80;99.90;;;;;;5051265;28;20052;-76
2023/05/30 12:00:43;;;;;;;11.40;3.85;;;21.90;99.90;;;;;;5052054;28;20091;-75
2023/05/30 12:03:16;;;;;;;7.45;3.20;;;21.90;99.90;;;;;;5051891;28;20083;-76
2023/05/30 12:05:45;;;;;;;13.88;4.05;;;22.00;99.90;;;;;;5048531;28;20493;-75
2023/05/30 12:08:13;;;;;;;11.77;3.50;;;22.00;99.90;;;;;;5043811;28;20052;-76
2023/05/30 12:10:41;;;;;;;13.15;4.72;;;22.00;99.90;;;;;;5052975;28;20450;-76
2023/05/30 12:13:08;;;;;;;10.68;3.95;;;22.10;99.90;;;;;;5051830;28;20037;-76
2023/05/30 12:15:38;;;;;;;14.48;3.80;;;22.10;99.90;;;;;;5041622;28;20078;-75
2023/05/30 12:18:05;;;;;;;10.75;3.80;;;22.20;99.90;;;;;;5044587;28;20107;-75
2023/05/30 12:20:44;;;;;;;9.00;3.63;;;22.20;99.90;;;;;;5054420;28;20048;-76
2023/05/30 12:23:11;;;;;;;4.88;3.05;;;22.20;99.90;;;;;;5048045;28;20056;-76
2023/05/30 12:25:38;;;;;;;6.53;2.90;;;22.30;99.90;;;;;;5050853;28;20048;-76
2023/05/30 12:28:05;;;;;;;7.30;3.13;;;22.40;99.90;;;;;;5049152;28;20122;-76
2023/05/30 12:30:36;;;;;;;12.63;3.83;;;22.40;99.90;;;;;;5049793;28;20041;-76
2023/05/30 12:33:13;;;;;;;8.25;3.13;;;22.50;99.90;;;;;;5045769;28;20052;-76
2023/05/30 12:35:41;;;;;;;8.90;3.47;;;22.50;99.90;;;;;;5052067;28;20446;-77
2023/05/30 12:38:11;;;;;;;11.50;3.53;;;22.50;99.90;;;;;;5054001;28;20041;-78
2023/05/30 12:40:43;;;;;;;11.32;4.22;;;22.50;99.90;;;;;;5051403;28;20088;-77
2023/05/30 12:43:12;;;;;;;13.32;3.95;;;22.60;99.90;;;;;;5054577;28;20045;-78
2023/05/30 12:45:42;;;;;;;8.52;3.10;;;22.70;99.90;;;;;;5048436;28;20095;-77
2023/05/30 12:48:09;;;;;;;7.50;3.25;;;22.70;99.90;;;;;;5048482;28;20137;-77
2023/05/30 12:50:36;;;;;;;8.25;3.40;;;22.70;99.90;;;;;;5055344;28;20073;-77
2023/05/30 12:53:03;;;;;;;7.82;3.40;;;22.70;99.90;;;;;;5058080;28;20095;-76
2023/05/30 12:55:29;;;;;;;9.23;3.22;;;22.80;99.90;;;;;;5051895;28;20080;-77
2023/05/30 12:57:57;;;;;;;9.82;3.58;;;22.80;99.90;;;;;;5054005;28;20053;-77